AirNav   Air Wisconsin pilot careers
 
 1496 users online  

75MU Pershing Regional Health Center -Marceline Heliport
Marceline, Missouri, USA

GOING TO MARCELINE?


FAA INFORMATION EFFECTIVE 28 FEBRUARY 2019

Location

FAA Identifier: 75MU
Lat/Long: 39-43-46.8600N / 092-56-40.4900W
39-43.781000N / 092-56.674833W
39.7296833 / -92.9445806
(estimated)
Elevation: 860 ft. / 262 m (estimated)
Variation: 04E (1985)
From city: 1 mile NE of MARCELINE, MO
Time zone: UTC -6 (UTC -5 during Daylight Saving Time)
Zip code: 64658

Heliport Operations

Heliport use: Private use, MEDICAL.
Activation date: 06/1987
Control tower: no
ARTCC: KANSAS CITY CENTER
FSS: COLUMBIA FLIGHT SERVICE STATION
Attendance: UNATNDD
Segmented circle: no

Heliport Communications

WX AWOS-AV at MO8 (4 nm NW): 118.425 (660-258-2151)

Nearby radio navigation aids

VOR radial/distance  VOR name  Freq  Var
MCMr276/21.8MACON VOR/DME112.9006E
IRKr208/29.2KIRKSVILLE VORTAC114.6006E

 
NDB name  Hdg/Dist  Freq  Var  ID
TRENTON122/36.540003ETRX - .-. -..-

Heliport Services

Runway Information

Helipad H1

Dimensions: 20 x 20 ft. / 6 x 6 m
Surface: concrete
Latitude: 39-43.781000N
Longitude: 092-56.674833W
Elevation: 860.0 ft.
Traffic pattern: leftleft

Heliport Ownership and Management from official FAA records

Ownership: Privately-owned
Owner: PERSHING REGL HEALTH CENTER
225 W. HAYDEN
MARCELINE, MO 64658
Phone 816-376-3521
Manager: ED MURPHY
225 W HAYDEN
MARCELINE, MO 64658
Phone 816-376-2222

Instrument Procedures

There are no published instrument procedures at 75MU.

Some nearby airports with instrument procedures:

MO8 - North Central Missouri Regional Airport (4 nm NW)
K89 - Macon-Fower Memorial Airport (23 nm E)
KCHT - Chillicothe Municipal Airport (26 nm W)
KIRK - Kirksville Regional Airport (29 nm NE)
KMBY - Omar N Bradley Airport (29 nm SE)
 
Loc | Ops | Rwys | IFR | FBO | Links
Com | Nav | Svcs | Stats | Notes

Kansas City Aviation Department
 
Area around 75MU (Pershing Regional Health Center -Marceline Heliport)
 
Road maps at: MapQuest Bing Google
 
Aerial photo
No photo
 
Sectional chart

 
Airport distance calculator
Flying to Pershing Regional Health Center -Marceline Heliport? Find the distance to fly.

From to 75MU

Sunrise and sunset
Times for 25-Mar-2019
 Local
(UTC-5)
 Zulu
(UTC)
Morning civil twilight06:4111:41
Sunrise07:0812:08
Sunset19:2800:28
Evening civil twilight19:5400:54

Current date and time
Zulu (UTC)  25-Mar-2019 15:31:20
Local (UTC-5)  25-Mar-2019 10:31:20
 
METAR
KIRK 
29nm NE 
251455Z AUTO 04011G16KT 10SM SCT065 06/02 A3027 RMK AO2 SLP256 T00560022 51030
KCDJ 
30nm W 
251452Z AUTO 02009G16KT 08/06 A3027 RMK AO1 SLP254 T00780056 51027
KMHL 
40nm S 
251515Z AUTO 02013G18KT 5SM BR OVC008 07/06 A3024 RMK AO2
KVER 
49nm S 
251515Z AUTO 02009KT 10SM OVC008 07/08 A3022 RMK AO2 T00740075
TAF
NOTAMs
Click for the latest NOTAMs
NOTAMs are issued by the DoD/FAA and will open in a separate window not controlled by AirNav.

 

 
 

Would you like to see your business listed on this page?

 If your business provides an interesting product or service to pilots, flight crews, aircraft, or users of the Pershing Regional Health Center -Marceline Heliport, you should consider listing it here.  To start the listing process, click on the button below
 
Add a business
 

Other Pages about Pershing Regional Health Center -Marceline Heliport

Update a link
 
Copyright © AirNav, LLC. All rights reserved. Privacy Policy  Contact